createdAt,value
2023-03-20T00:00:39.798Z,9.13
2023-03-20T00:05:42.733Z,9.21
2023-03-20T00:10:47.419Z,9.29
2023-03-20T00:15:52.110Z,9.33
2023-03-20T00:20:54.955Z,9.33
2023-03-20T00:25:57.905Z,9.32
2023-03-20T00:31:02.314Z,9.31
2023-03-20T00:36:06.567Z,9.31
2023-03-20T00:41:22.555Z,9.32
2023-03-20T00:46:27.330Z,9.31
2023-03-20T00:51:30.482Z,9.35
2023-03-20T00:56:37.690Z,9.37
2023-03-20T01:01:43.292Z,9.36
2023-03-20T01:06:46.330Z,9.38
2023-03-20T01:11:51.098Z,9.35
2023-03-20T01:16:56.028Z,9.36
2023-03-20T01:22:02.705Z,9.30
2023-03-20T01:27:12.770Z,9.20
2023-03-20T01:32:20.086Z,9.16
2023-03-20T01:37:28.914Z,9.14
2023-03-20T01:42:36.921Z,9.11
2023-03-20T01:47:42.265Z,8.94
2023-03-20T01:52:48.963Z,8.72
2023-03-20T01:57:56.805Z,8.54
2023-03-20T02:03:08.945Z,8.40
2023-03-20T02:08:33.652Z,8.21
2023-03-20T02:13:40.764Z,8.10
2023-03-20T02:18:48.864Z,8.09
2023-03-20T02:24:32.222Z,7.97
2023-03-20T02:30:12.533Z,7.92
2023-03-20T02:35:33.974Z,7.85
2023-03-20T02:40:45.894Z,7.84
2023-03-20T02:45:54.964Z,7.82
2023-03-20T02:51:04.811Z,7.80
2023-03-20T02:56:20.212Z,7.77
2023-03-20T03:01:29.074Z,7.76
2023-03-20T03:06:33.644Z,7.72
2023-03-20T03:11:44.990Z,7.67
2023-03-20T03:16:52.751Z,7.66
2023-03-20T03:21:56.312Z,7.67
2023-03-20T03:27:03.683Z,7.66
2023-03-20T03:32:08.422Z,7.62
2023-03-20T03:37:22.306Z,7.63
2023-03-20T03:42:34.017Z,7.63
2023-03-20T03:47:42.980Z,7.64
2023-03-20T03:52:49.334Z,7.68
2023-03-20T03:57:58.700Z,7.68
2023-03-20T04:03:03.771Z,7.71
2023-03-20T04:08:16.270Z,7.72
2023-03-20T04:13:20.612Z,7.73
2023-03-20T04:18:24.520Z,7.68
2023-03-20T04:23:27.505Z,7.72
2023-03-20T04:28:31.909Z,7.70
2023-03-20T04:33:58.605Z,7.70
2023-03-20T04:39:27.642Z,7.74
2023-03-20T04:44:32.353Z,7.73
2023-03-20T04:49:35.435Z,7.76
2023-03-20T04:54:44.722Z,7.78
2023-03-20T04:59:50.036Z,7.78
2023-03-20T05:04:56.009Z,7.76
2023-03-20T05:09:58.919Z,7.80
2023-03-20T05:15:03.927Z,7.79
2023-03-20T05:20:25.889Z,7.81
2023-03-20T05:25:49.526Z,7.81
2023-03-20T05:31:26.709Z,7.76
2023-03-20T05:36:49.658Z,7.74
2023-03-20T05:42:11.573Z,7.74
2023-03-20T05:47:26.252Z,7.72
2023-03-20T05:52:57.514Z,7.72
2023-03-20T05:58:19.869Z,7.78
2023-03-20T06:03:33.422Z,7.79
2023-03-20T06:08:46.753Z,7.83
2023-03-20T06:13:54.614Z,7.84
2023-03-20T06:18:59.748Z,7.90
2023-03-20T06:24:02.756Z,7.93
2023-03-20T06:29:07.292Z,7.99
2023-03-20T06:34:14.172Z,8.02
2023-03-20T06:39:21.615Z,8.05
2023-03-20T06:44:32.667Z,8.14
2023-03-20T06:49:52.138Z,8.47
2023-03-20T06:54:57.989Z,8.66
2023-03-20T07:00:03.173Z,8.76
2023-03-20T07:05:08.578Z,8.86
2023-03-20T07:10:13.431Z,8.93
2023-03-20T07:15:24.694Z,8.88
2023-03-20T07:20:29.119Z,8.94
2023-03-20T07:25:42.371Z,8.91
2023-03-20T07:30:49.725Z,9.16
2023-03-20T07:35:55.073Z,9.50
2023-03-20T07:40:59.356Z,9.53
2023-03-20T07:46:03.776Z,9.87
2023-03-20T07:51:08.876Z,9.88
2023-03-20T07:56:18.821Z,9.75
2023-03-20T08:01:21.718Z,9.65
2023-03-20T08:06:28.883Z,9.53
2023-03-20T08:11:37.315Z,9.45
2023-03-20T08:16:40.253Z,9.63
2023-03-20T08:21:44.586Z,9.65
2023-03-20T08:26:47.722Z,9.88
2023-03-20T08:31:53.373Z,10.02
2023-03-20T08:36:57.620Z,10.11
2023-03-20T08:42:01.984Z,10.48
2023-03-20T08:47:07.699Z,10.69
2023-03-20T08:52:13.759Z,11.07
2023-03-20T08:57:17.803Z,11.25
2023-03-20T09:02:21.973Z,11.09
2023-03-20T09:07:30.107Z,10.90
2023-03-20T09:12:33.029Z,10.75
2023-03-20T09:17:39.328Z,10.73
2023-03-20T09:22:47.232Z,10.64
2023-03-20T09:27:55.319Z,10.59
2023-03-20T09:32:58.479Z,10.62
2023-03-20T09:38:02.799Z,10.60
2023-03-20T09:43:18.826Z,10.58
2023-03-20T09:48:29.478Z,10.84
2023-03-20T09:53:38.488Z,11.02
2023-03-20T09:58:43.629Z,11.08
2023-03-20T10:03:53.876Z,11.34
2023-03-20T10:09:04.010Z,11.54
2023-03-20T10:14:22.766Z,11.47
2023-03-20T10:19:31.154Z,11.38
2023-03-20T10:24:40.889Z,11.26
2023-03-20T10:29:55.842Z,11.35
2023-03-20T10:35:12.784Z,11.65
2023-03-20T10:40:27.147Z,12.21
2023-03-20T10:45:39.545Z,12.50
2023-03-20T10:50:46.522Z,12.63
2023-03-20T10:55:52.297Z,13.06
2023-03-20T11:01:00.221Z,13.15
2023-03-20T11:06:09.968Z,13.10
2023-03-20T11:11:22.209Z,12.85
2023-03-20T11:16:26.905Z,12.84
2023-03-20T11:21:34.979Z,12.86
2023-03-20T11:26:41.182Z,13.07
2023-03-20T11:31:44.960Z,12.87
2023-03-20T11:37:09.236Z,12.97
2023-03-20T11:42:25.643Z,12.59
2023-03-20T11:47:34.908Z,12.37
2023-03-20T11:52:41.120Z,12.29
2023-03-20T11:57:50.061Z,12.58
2023-03-20T12:02:53.486Z,12.20
2023-03-20T12:07:58.966Z,12.14
2023-03-20T12:13:08.252Z,12.06
2023-03-20T12:18:26.125Z,12.04
2023-03-20T12:23:35.133Z,12.05
2023-03-20T12:28:49.047Z,11.90
2023-03-20T12:33:57.703Z,11.97
2023-03-20T12:39:03.097Z,11.82
2023-03-20T12:44:25.564Z,12.08
2023-03-20T12:49:46.451Z,12.14
2023-03-20T12:55:37.415Z,11.96
2023-03-20T13:00:50.287Z,11.81
2023-03-20T13:06:01.955Z,11.87
2023-03-20T13:11:17.007Z,12.15
2023-03-20T13:16:32.009Z,12.23
2023-03-20T13:21:43.478Z,12.14
2023-03-20T13:26:52.695Z,11.87
2023-03-20T13:32:09.527Z,11.77
2023-03-20T13:37:23.971Z,11.69
2023-03-20T13:42:33.012Z,11.67
2023-03-20T13:47:39.255Z,11.45
2023-03-20T13:52:49.495Z,11.35
2023-03-20T13:58:18.298Z,11.51
2023-03-20T14:03:28.525Z,11.21
2023-03-20T14:08:36.945Z,11.04
2023-03-20T14:13:41.435Z,10.87
2023-03-20T14:18:49.240Z,10.78
2023-03-20T14:24:03.334Z,10.53
2023-03-20T14:29:23.470Z,10.47
2023-03-20T14:34:27.945Z,10.50
2023-03-20T14:39:50.408Z,10.26
2023-03-20T14:45:26.400Z,10.74
2023-03-20T14:50:35.063Z,10.84
2023-03-20T14:56:06.528Z,11.23
2023-03-20T15:01:17.681Z,11.07
2023-03-20T15:06:27.414Z,10.83
2023-03-20T15:11:32.449Z,10.60
2023-03-20T15:16:38.718Z,10.62
2023-03-20T15:21:48.635Z,10.32
2023-03-20T15:26:57.044Z,10.45
2023-03-20T15:32:13.996Z,10.37
2023-03-20T15:37:23.040Z,10.28
2023-03-20T15:42:27.592Z,10.42
2023-03-20T15:47:31.251Z,10.49
2023-03-20T15:52:41.611Z,10.51
2023-03-20T15:57:47.281Z,10.47
2023-03-20T16:02:57.111Z,10.56
2023-03-20T16:08:15.185Z,10.41
2023-03-20T16:13:19.170Z,10.32
2023-03-20T16:18:23.161Z,10.03
2023-03-20T16:23:34.877Z,10.13
2023-03-20T16:28:43.587Z,10.04
2023-03-20T16:33:48.141Z,9.98
2023-03-20T16:39:03.156Z,9.89
2023-03-20T16:44:12.858Z,9.79
2023-03-20T16:49:50.479Z,9.78
2023-03-20T16:54:59.168Z,9.65
2023-03-20T17:00:08.999Z,9.65
2023-03-20T17:05:15.146Z,9.59
2023-03-20T17:10:22.101Z,9.49
2023-03-20T17:15:25.945Z,9.50
2023-03-20T17:20:30.850Z,9.43
2023-03-20T17:25:36.936Z,9.43
2023-03-20T17:30:39.724Z,9.35
2023-03-20T17:35:50.272Z,9.32
2023-03-20T17:40:54.656Z,9.27
2023-03-20T17:45:57.466Z,9.21
2023-03-20T17:51:00.815Z,9.16
2023-03-20T17:56:11.065Z,9.14
2023-03-20T18:01:15.584Z,9.10
2023-03-20T18:06:29.780Z,9.13
2023-03-20T18:11:39.052Z,9.11
2023-03-20T18:16:41.925Z,9.09
2023-03-20T18:21:46.762Z,9.07
2023-03-20T18:26:52.176Z,9.05
2023-03-20T18:31:57.310Z,9.03
2023-03-20T18:37:00.344Z,9.01
2023-03-20T18:42:04.730Z,8.96
2023-03-20T18:47:08.522Z,8.94
2023-03-20T18:52:15.253Z,8.92
2023-03-20T18:57:19.732Z,8.94
2023-03-20T19:02:22.571Z,8.92
2023-03-20T19:07:26.076Z,8.88
2023-03-20T19:12:30.490Z,8.89
2023-03-20T19:17:34.108Z,8.90
2023-03-20T19:22:37.125Z,8.91
2023-03-20T19:27:43.118Z,8.89
2023-03-20T19:32:46.943Z,8.91
2023-03-20T19:37:50.079Z,8.92
2023-03-20T19:43:02.371Z,8.88
2023-03-20T19:48:15.358Z,8.87
2023-03-20T19:53:20.909Z,8.86
2023-03-20T19:58:27.248Z,8.88
2023-03-20T20:03:30.246Z,8.83
2023-03-20T20:08:47.572Z,8.85
2023-03-20T20:14:09.787Z,8.81
2023-03-20T20:19:13.453Z,8.79
2023-03-20T20:24:18.273Z,8.78
2023-03-20T20:29:25.319Z,8.78
2023-03-20T20:39:54.484Z,8.75
2023-03-20T20:44:59.302Z,8.75
2023-03-20T20:50:04.010Z,8.77
2023-03-20T20:55:21.988Z,8.76
2023-03-20T21:00:47.606Z,8.74
2023-03-20T21:05:51.712Z,8.69
2023-03-20T21:10:55.319Z,8.67
2023-03-20T21:16:00.749Z,8.65
2023-03-20T21:21:09.375Z,8.65
2023-03-20T21:26:13.676Z,8.61
2023-03-20T21:31:28.432Z,8.57
2023-03-20T21:36:35.144Z,8.55
2023-03-20T21:41:38.751Z,8.57
2023-03-20T21:47:44.426Z,8.55
2023-03-20T22:03:09.893Z,8.49
2023-03-20T22:36:10.355Z,8.51
2023-03-20T22:46:22.593Z,8.54
2023-03-20T22:51:36.835Z,8.54
2023-03-20T22:56:44.004Z,8.56
2023-03-20T23:01:47.848Z,8.55
2023-03-20T23:06:52.110Z,8.57
2023-03-20T23:11:55.154Z,8.54
2023-03-20T23:16:58.073Z,8.51
2023-03-20T23:22:03.636Z,8.49
2023-03-20T23:27:06.525Z,8.48
2023-03-20T23:32:10.525Z,8.47
2023-03-20T23:37:20.711Z,8.47
2023-03-20T23:42:30.284Z,8.46
2023-03-20T23:47:44.678Z,8.47
2023-03-20T23:52:58.879Z,8.48
2023-03-20T23:58:06.788Z,8.46
